sensor_id;sensor_type;location;lat;lon;timestamp;P1;durP1;ratioP1;P2;durP2;ratioP2
62509;SDS011;48558;48.242;11.654;2024-01-30T00:01:03;9.77;;;5.35;;
62509;SDS011;48558;48.242;11.654;2024-01-30T00:05:16;7.35;;;5.25;;
62509;SDS011;48558;48.242;11.654;2024-01-30T00:09:28;7.13;;;4.95;;
62509;SDS011;48558;48.242;11.654;2024-01-30T00:13:41;6.80;;;5.03;;
62509;SDS011;48558;48.242;11.654;2024-01-30T00:17:54;7.30;;;5.13;;
62509;SDS011;48558;48.242;11.654;2024-01-30T00:22:07;5.65;;;4.93;;
62509;SDS011;48558;48.242;11.654;2024-01-30T00:26:20;6.00;;;4.75;;
62509;SDS011;48558;48.242;11.654;2024-01-30T00:30:33;8.27;;;4.88;;
62509;SDS011;48558;48.242;11.654;2024-01-30T00:34:45;6.68;;;4.30;;
62509;SDS011;48558;48.242;11.654;2024-01-30T00:38:58;6.22;;;4.78;;
62509;SDS011;48558;48.242;11.654;2024-01-30T00:43:11;4.68;;;4.00;;
62509;SDS011;48558;48.242;11.654;2024-01-30T00:47:23;6.82;;;4.20;;
62509;SDS011;48558;48.242;11.654;2024-01-30T00:51:36;5.97;;;4.22;;
62509;SDS011;48558;48.242;11.654;2024-01-30T00:55:48;5.25;;;4.00;;
62509;SDS011;48558;48.242;11.654;2024-01-30T01:00:01;3.20;;;2.90;;
62509;SDS011;48558;48.242;11.654;2024-01-30T01:04:15;5.55;;;4.07;;
62509;SDS011;48558;48.242;11.654;2024-01-30T01:08:27;5.00;;;3.35;;
62509;SDS011;48558;48.242;11.654;2024-01-30T01:12:40;11.43;;;4.22;;
62509;SDS011;48558;48.242;11.654;2024-01-30T01:16:53;5.05;;;3.67;;
62509;SDS011;48558;48.242;11.654;2024-01-30T01:21:05;5.85;;;4.22;;
62509;SDS011;48558;48.242;11.654;2024-01-30T01:25:18;5.82;;;3.58;;
62509;SDS011;48558;48.242;11.654;2024-01-30T01:29:31;6.47;;;4.25;;
62509;SDS011;48558;48.242;11.654;2024-01-30T01:33:44;8.55;;;3.97;;
62509;SDS011;48558;48.242;11.654;2024-01-30T01:37:57;8.85;;;4.10;;
62509;SDS011;48558;48.242;11.654;2024-01-30T01:42:12;4.95;;;4.32;;
62509;SDS011;48558;48.242;11.654;2024-01-30T01:46:26;5.63;;;3.95;;
62509;SDS011;48558;48.242;11.654;2024-01-30T01:50:40;4.55;;;3.53;;
62509;SDS011;48558;48.242;11.654;2024-01-30T01:54:55;6.30;;;3.70;;
62509;SDS011;48558;48.242;11.654;2024-01-30T01:59:08;7.07;;;3.95;;
62509;SDS011;48558;48.242;11.654;2024-01-30T02:03:21;7.38;;;3.97;;
62509;SDS011;48558;48.242;11.654;2024-01-30T02:07:33;4.22;;;3.45;;
62509;SDS011;48558;48.242;11.654;2024-01-30T02:11:46;4.40;;;3.35;;
62509;SDS011;48558;48.242;11.654;2024-01-30T02:15:59;5.25;;;3.67;;
62509;SDS011;48558;48.242;11.654;2024-01-30T02:20:11;12.40;;;4.00;;
62509;SDS011;48558;48.242;11.654;2024-01-30T02:24:25;4.82;;;4.00;;
62509;SDS011;48558;48.242;11.654;2024-01-30T02:28:38;5.13;;;4.03;;
62509;SDS011;48558;48.242;11.654;2024-01-30T02:32:50;5.80;;;3.60;;
62509;SDS011;48558;48.242;11.654;2024-01-30T02:37:03;6.38;;;4.03;;
62509;SDS011;48558;48.242;11.654;2024-01-30T02:41:16;3.33;;;3.03;;
62509;SDS011;48558;48.242;11.654;2024-01-30T02:45:28;3.85;;;3.45;;
62509;SDS011;48558;48.242;11.654;2024-01-30T02:49:41;4.10;;;3.53;;
62509;SDS011;48558;48.242;11.654;2024-01-30T02:53:54;5.10;;;3.88;;
62509;SDS011;48558;48.242;11.654;2024-01-30T02:58:06;5.65;;;3.78;;
62509;SDS011;48558;48.242;11.654;2024-01-30T03:02:19;4.43;;;3.22;;
62509;SDS011;48558;48.242;11.654;2024-01-30T03:06:32;5.55;;;3.95;;
62509;SDS011;48558;48.242;11.654;2024-01-30T03:10:44;5.05;;;3.50;;
62509;SDS011;48558;48.242;11.654;2024-01-30T03:14:57;5.10;;;3.55;;
62509;SDS011;48558;48.242;11.654;2024-01-30T03:19:09;4.47;;;3.50;;
62509;SDS011;48558;48.242;11.654;2024-01-30T03:23:22;7.70;;;4.45;;
62509;SDS011;48558;48.242;11.654;2024-01-30T03:27:34;3.60;;;3.25;;
62509;SDS011;48558;48.242;11.654;2024-01-30T03:31:47;5.05;;;3.60;;
62509;SDS011;48558;48.242;11.654;2024-01-30T03:36:02;6.85;;;4.18;;
62509;SDS011;48558;48.242;11.654;2024-01-30T03:40:16;5.97;;;2.70;;
62509;SDS011;48558;48.242;11.654;2024-01-30T03:44:29;5.25;;;3.40;;
62509;SDS011;48558;48.242;11.654;2024-01-30T03:48:42;5.40;;;3.38;;
62509;SDS011;48558;48.242;11.654;2024-01-30T03:52:54;3.88;;;3.03;;
62509;SDS011;48558;48.242;11.654;2024-01-30T03:57:07;5.43;;;3.28;;
62509;SDS011;48558;48.242;11.654;2024-01-30T04:01:19;6.20;;;3.92;;
62509;SDS011;48558;48.242;11.654;2024-01-30T04:05:32;5.78;;;3.38;;
62509;SDS011;48558;48.242;11.654;2024-01-30T04:09:45;5.63;;;3.40;;
62509;SDS011;48558;48.242;11.654;2024-01-30T04:13:58;4.32;;;3.33;;
62509;SDS011;48558;48.242;11.654;2024-01-30T04:18:10;4.07;;;3.00;;
62509;SDS011;48558;48.242;11.654;2024-01-30T04:22:23;5.25;;;3.78;;
62509;SDS011;48558;48.242;11.654;2024-01-30T04:26:36;6.18;;;4.25;;
62509;SDS011;48558;48.242;11.654;2024-01-30T04:30:49;4.03;;;3.33;;
62509;SDS011;48558;48.242;11.654;2024-01-30T04:35:01;10.07;;;3.55;;
62509;SDS011;48558;48.242;11.654;2024-01-30T04:39:21;7.13;;;3.28;;
62509;SDS011;48558;48.242;11.654;2024-01-30T04:43:34;3.80;;;3.13;;
62509;SDS011;48558;48.242;11.654;2024-01-30T04:47:46;6.32;;;4.30;;
62509;SDS011;48558;48.242;11.654;2024-01-30T04:51:59;4.25;;;3.28;;
62509;SDS011;48558;48.242;11.654;2024-01-30T04:56:12;4.60;;;3.15;;
62509;SDS011;48558;48.242;11.654;2024-01-30T05:00:24;3.83;;;3.50;;
62509;SDS011;48558;48.242;11.654;2024-01-30T05:04:37;6.18;;;4.22;;
62509;SDS011;48558;48.242;11.654;2024-01-30T05:08:50;5.55;;;3.95;;
62509;SDS011;48558;48.242;11.654;2024-01-30T05:13:02;4.32;;;3.28;;
62509;SDS011;48558;48.242;11.654;2024-01-30T05:17:15;4.53;;;3.40;;
62509;SDS011;48558;48.242;11.654;2024-01-30T05:21:28;7.68;;;3.55;;
62509;SDS011;48558;48.242;11.654;2024-01-30T05:25:40;3.97;;;3.40;;
62509;SDS011;48558;48.242;11.654;2024-01-30T05:29:53;4.82;;;3.25;;
62509;SDS011;48558;48.242;11.654;2024-01-30T05:34:05;8.88;;;4.10;;
62509;SDS011;48558;48.242;11.654;2024-01-30T05:38:18;5.72;;;4.07;;
62509;SDS011;48558;48.242;11.654;2024-01-30T05:42:31;4.75;;;3.35;;
62509;SDS011;48558;48.242;11.654;2024-01-30T05:46:44;3.78;;;3.00;;
62509;SDS011;48558;48.242;11.654;2024-01-30T05:50:56;4.95;;;3.10;;
62509;SDS011;48558;48.242;11.654;2024-01-30T05:55:09;10.65;;;3.67;;
62509;SDS011;48558;48.242;11.654;2024-01-30T05:59:24;4.00;;;3.40;;
62509;SDS011;48558;48.242;11.654;2024-01-30T06:03:36;5.60;;;3.15;;
62509;SDS011;48558;48.242;11.654;2024-01-30T06:07:49;4.97;;;3.33;;
62509;SDS011;48558;48.242;11.654;2024-01-30T06:12:01;4.60;;;3.40;;
62509;SDS011;48558;48.242;11.654;2024-01-30T06:16:14;6.05;;;3.85;;
62509;SDS011;48558;48.242;11.654;2024-01-30T06:20:33;4.38;;;3.03;;
62509;SDS011;48558;48.242;11.654;2024-01-30T06:24:46;2.90;;;2.60;;
62509;SDS011;48558;48.242;11.654;2024-01-30T06:29:00;4.93;;;3.35;;
62509;SDS011;48558;48.242;11.654;2024-01-30T06:33:13;3.97;;;2.88;;
62509;SDS011;48558;48.242;11.654;2024-01-30T06:37:26;3.75;;;2.90;;
62509;SDS011;48558;48.242;11.654;2024-01-30T06:41:38;5.53;;;3.65;;
62509;SDS011;48558;48.242;11.654;2024-01-30T06:45:51;8.00;;;3.60;;
62509;SDS011;48558;48.242;11.654;2024-01-30T06:50:04;7.47;;;4.22;;
62509;SDS011;48558;48.242;11.654;2024-01-30T06:54:17;3.80;;;3.28;;
62509;SDS011;48558;48.242;11.654;2024-01-30T06:58:29;4.03;;;3.10;;
62509;SDS011;48558;48.242;11.654;2024-01-30T07:02:42;4.40;;;2.70;;
62509;SDS011;48558;48.242;11.654;2024-01-30T07:06:55;3.72;;;2.08;;
62509;SDS011;48558;48.242;11.654;2024-01-30T07:11:07;2.35;;;2.17;;
62509;SDS011;48558;48.242;11.654;2024-01-30T07:15:20;1.85;;;1.75;;
62509;SDS011;48558;48.242;11.654;2024-01-30T07:19:32;3.38;;;1.75;;
62509;SDS011;48558;48.242;11.654;2024-01-30T07:23:46;1.77;;;1.48;;
62509;SDS011;48558;48.242;11.654;2024-01-30T07:27:59;2.63;;;2.25;;
62509;SDS011;48558;48.242;11.654;2024-01-30T07:32:12;3.35;;;2.92;;
62509;SDS011;48558;48.242;11.654;2024-01-30T07:36:24;2.58;;;2.03;;
62509;SDS011;48558;48.242;11.654;2024-01-30T07:40:37;3.65;;;2.58;;
62509;SDS011;48558;48.242;11.654;2024-01-30T07:44:50;2.50;;;2.30;;
62509;SDS011;48558;48.242;11.654;2024-01-30T07:49:02;3.13;;;2.58;;
62509;SDS011;48558;48.242;11.654;2024-01-30T07:53:15;3.60;;;2.50;;
62509;SDS011;48558;48.242;11.654;2024-01-30T07:57:28;3.25;;;2.95;;
62509;SDS011;48558;48.242;11.654;2024-01-30T08:01:40;3.60;;;2.92;;
62509;SDS011;48558;48.242;11.654;2024-01-30T08:05:53;6.20;;;3.65;;
62509;SDS011;48558;48.242;11.654;2024-01-30T08:10:06;4.35;;;3.05;;
62509;SDS011;48558;48.242;11.654;2024-01-30T08:14:19;5.13;;;3.13;;
62509;SDS011;48558;48.242;11.654;2024-01-30T08:18:32;4.68;;;3.33;;
62509;SDS011;48558;48.242;11.654;2024-01-30T08:22:45;5.05;;;3.58;;
62509;SDS011;48558;48.242;11.654;2024-01-30T08:26:58;5.97;;;3.58;;
62509;SDS011;48558;48.242;11.654;2024-01-30T08:31:11;5.78;;;3.72;;
62509;SDS011;48558;48.242;11.654;2024-01-30T08:35:26;6.13;;;3.55;;
62509;SDS011;48558;48.242;11.654;2024-01-30T08:39:39;9.13;;;5.65;;
62509;SDS011;48558;48.242;11.654;2024-01-30T08:43:52;10.48;;;5.03;;
62509;SDS011;48558;48.242;11.654;2024-01-30T08:48:05;12.15;;;6.95;;
62509;SDS011;48558;48.242;11.654;2024-01-30T08:52:18;7.65;;;5.07;;
62509;SDS011;48558;48.242;11.654;2024-01-30T08:56:31;8.35;;;5.28;;
62509;SDS011;48558;48.242;11.654;2024-01-30T09:00:44;7.05;;;4.78;;
62509;SDS011;48558;48.242;11.654;2024-01-30T09:04:58;10.65;;;3.80;;
62509;SDS011;48558;48.242;11.654;2024-01-30T09:09:11;4.60;;;3.65;;
62509;SDS011;48558;48.242;11.654;2024-01-30T09:13:23;6.38;;;3.33;;
62509;SDS011;48558;48.242;11.654;2024-01-30T09:17:36;6.97;;;4.57;;
62509;SDS011;48558;48.242;11.654;2024-01-30T09:21:49;5.65;;;3.63;;
62509;SDS011;48558;48.242;11.654;2024-01-30T09:26:01;6.13;;;3.90;;
62509;SDS011;48558;48.242;11.654;2024-01-30T09:30:14;6.22;;;3.85;;
62509;SDS011;48558;48.242;11.654;2024-01-30T09:34:26;5.75;;;3.42;;
62509;SDS011;48558;48.242;11.654;2024-01-30T09:38:39;5.10;;;3.58;;
62509;SDS011;48558;48.242;11.654;2024-01-30T09:42:52;5.28;;;3.58;;
62509;SDS011;48558;48.242;11.654;2024-01-30T09:47:06;2.75;;;2.47;;
62509;SDS011;48558;48.242;11.654;2024-01-30T09:51:19;5.97;;;3.28;;
62509;SDS011;48558;48.242;11.654;2024-01-30T09:55:33;5.95;;;2.90;;
62509;SDS011;48558;48.242;11.654;2024-01-30T09:59:48;3.05;;;2.40;;
62509;SDS011;48558;48.242;11.654;2024-01-30T10:04:03;6.70;;;3.45;;
62509;SDS011;48558;48.242;11.654;2024-01-30T10:08:17;3.88;;;2.50;;
62509;SDS011;48558;48.242;11.654;2024-01-30T10:12:31;3.92;;;2.65;;
62509;SDS011;48558;48.242;11.654;2024-01-30T10:16:45;3.03;;;2.72;;
62509;SDS011;48558;48.242;11.654;2024-01-30T10:20:59;4.32;;;3.35;;
62509;SDS011;48558;48.242;11.654;2024-01-30T10:25:12;4.40;;;3.47;;
62509;SDS011;48558;48.242;11.654;2024-01-30T10:29:25;5.10;;;3.35;;
62509;SDS011;48558;48.242;11.654;2024-01-30T10:33:38;5.68;;;3.25;;
62509;SDS011;48558;48.242;11.654;2024-01-30T10:37:51;7.13;;;3.38;;
62509;SDS011;48558;48.242;11.654;2024-01-30T10:42:04;9.93;;;2.90;;
62509;SDS011;48558;48.242;11.654;2024-01-30T10:46:18;5.55;;;2.72;;
62509;SDS011;48558;48.242;11.654;2024-01-30T10:50:32;5.57;;;2.95;;
62509;SDS011;48558;48.242;11.654;2024-01-30T10:54:53;4.97;;;3.53;;
62509;SDS011;48558;48.242;11.654;2024-01-30T10:59:06;4.53;;;3.28;;
62509;SDS011;48558;48.242;11.654;2024-01-30T11:03:22;4.88;;;3.05;;
62509;SDS011;48558;48.242;11.654;2024-01-30T11:07:36;5.40;;;3.15;;
62509;SDS011;48558;48.242;11.654;2024-01-30T11:11:58;7.22;;;3.28;;
62509;SDS011;48558;48.242;11.654;2024-01-30T11:20:29;5.57;;;3.03;;
62509;SDS011;48558;48.242;11.654;2024-01-30T11:24:47;10.15;;;3.10;;
62509;SDS011;48558;48.242;11.654;2024-01-30T11:29:03;3.00;;;2.70;;
62509;SDS011;48558;48.242;11.654;2024-01-30T11:33:29;3.10;;;2.80;;
62509;SDS011;48558;48.242;11.654;2024-01-30T11:37:45;8.38;;;3.10;;
62509;SDS011;48558;48.242;11.654;2024-01-30T11:42:01;5.30;;;3.03;;
62509;SDS011;48558;48.242;11.654;2024-01-30T11:46:18;7.85;;;2.80;;
62509;SDS011;48558;48.242;11.654;2024-01-30T11:50:35;3.20;;;2.45;;
62509;SDS011;48558;48.242;11.654;2024-01-30T11:54:51;3.88;;;2.42;;
62509;SDS011;48558;48.242;11.654;2024-01-30T11:59:04;9.18;;;3.08;;
62509;SDS011;48558;48.242;11.654;2024-01-30T12:03:17;6.85;;;2.60;;
62509;SDS011;48558;48.242;11.654;2024-01-30T12:07:29;4.22;;;2.50;;
62509;SDS011;48558;48.242;11.654;2024-01-30T12:11:46;3.15;;;2.60;;
62509;SDS011;48558;48.242;11.654;2024-01-30T12:16:00;3.55;;;3.17;;
62509;SDS011;48558;48.242;11.654;2024-01-30T12:20:14;7.22;;;3.00;;
62509;SDS011;48558;48.242;11.654;2024-01-30T12:24:30;2.85;;;2.20;;
62509;SDS011;48558;48.242;11.654;2024-01-30T12:28:49;2.53;;;2.25;;
62509;SDS011;48558;48.242;11.654;2024-01-30T12:33:03;3.53;;;2.30;;
62509;SDS011;48558;48.242;11.654;2024-01-30T12:37:17;10.70;;;2.30;;
62509;SDS011;48558;48.242;11.654;2024-01-30T12:41:36;5.43;;;2.43;;
62509;SDS011;48558;48.242;11.654;2024-01-30T12:45:49;6.25;;;2.80;;
62509;SDS011;48558;48.242;11.654;2024-01-30T12:50:02;3.50;;;2.45;;
62509;SDS011;48558;48.242;11.654;2024-01-30T12:54:15;5.40;;;2.75;;
62509;SDS011;48558;48.242;11.654;2024-01-30T12:58:28;3.28;;;2.53;;
62509;SDS011;48558;48.242;11.654;2024-01-30T13:02:41;3.22;;;2.58;;
62509;SDS011;48558;48.242;11.654;2024-01-30T13:06:57;5.93;;;2.60;;
62509;SDS011;48558;48.242;11.654;2024-01-30T13:11:09;5.22;;;2.65;;
62509;SDS011;48558;48.242;11.654;2024-01-30T13:15:31;4.72;;;3.38;;
62509;SDS011;48558;48.242;11.654;2024-01-30T13:19:44;5.30;;;2.42;;
62509;SDS011;48558;48.242;11.654;2024-01-30T13:23:57;3.40;;;2.58;;
62509;SDS011;48558;48.242;11.654;2024-01-30T13:28:09;6.00;;;3.05;;
62509;SDS011;48558;48.242;11.654;2024-01-30T13:32:22;2.60;;;2.40;;
62509;SDS011;48558;48.242;11.654;2024-01-30T13:36:34;4.57;;;2.40;;
62509;SDS011;48558;48.242;11.654;2024-01-30T13:40:47;4.45;;;3.00;;
62509;SDS011;48558;48.242;11.654;2024-01-30T13:45:00;3.75;;;2.60;;
62509;SDS011;48558;48.242;11.654;2024-01-30T13:49:12;4.13;;;2.60;;
62509;SDS011;48558;48.242;11.654;2024-01-30T13:53:25;3.58;;;2.58;;
62509;SDS011;48558;48.242;11.654;2024-01-30T13:57:38;3.88;;;2.65;;
62509;SDS011;48558;48.242;11.654;2024-01-30T14:01:51;4.78;;;2.70;;
62509;SDS011;48558;48.242;11.654;2024-01-30T14:06:04;5.40;;;2.78;;
62509;SDS011;48558;48.242;11.654;2024-01-30T14:10:18;5.97;;;2.67;;
62509;SDS011;48558;48.242;11.654;2024-01-30T14:14:31;5.28;;;2.88;;
62509;SDS011;48558;48.242;11.654;2024-01-30T14:18:43;2.83;;;2.53;;
62509;SDS011;48558;48.242;11.654;2024-01-30T14:22:56;5.47;;;2.92;;
62509;SDS011;48558;48.242;11.654;2024-01-30T14:27:09;4.78;;;3.13;;
62509;SDS011;48558;48.242;11.654;2024-01-30T14:31:22;3.92;;;2.97;;
62509;SDS011;48558;48.242;11.654;2024-01-30T14:35:36;2.65;;;2.45;;
62509;SDS011;48558;48.242;11.654;2024-01-30T14:39:49;4.05;;;2.95;;
62509;SDS011;48558;48.242;11.654;2024-01-30T14:44:02;4.32;;;3.10;;
62509;SDS011;48558;48.242;11.654;2024-01-30T14:48:17;5.80;;;3.65;;
62509;SDS011;48558;48.242;11.654;2024-01-30T14:52:30;3.95;;;3.00;;
62509;SDS011;48558;48.242;11.654;2024-01-30T14:56:48;6.13;;;3.30;;
62509;SDS011;48558;48.242;11.654;2024-01-30T15:01:01;3.92;;;3.53;;
62509;SDS011;48558;48.242;11.654;2024-01-30T15:05:14;5.45;;;3.65;;
62509;SDS011;48558;48.242;11.654;2024-01-30T15:09:27;8.77;;;3.60;;
62509;SDS011;48558;48.242;11.654;2024-01-30T15:13:42;8.80;;;3.53;;
62509;SDS011;48558;48.242;11.654;2024-01-30T15:17:54;6.18;;;3.97;;
62509;SDS011;48558;48.242;11.654;2024-01-30T15:22:07;7.35;;;3.67;;
62509;SDS011;48558;48.242;11.654;2024-01-30T15:26:20;7.05;;;3.97;;
62509;SDS011;48558;48.242;11.654;2024-01-30T15:30:32;8.55;;;3.85;;
62509;SDS011;48558;48.242;11.654;2024-01-30T15:34:45;5.70;;;3.80;;
62509;SDS011;48558;48.242;11.654;2024-01-30T15:38:58;4.00;;;3.60;;
62509;SDS011;48558;48.242;11.654;2024-01-30T15:43:11;6.28;;;3.58;;
62509;SDS011;48558;48.242;11.654;2024-01-30T15:47:24;7.18;;;3.72;;
62509;SDS011;48558;48.242;11.654;2024-01-30T15:51:37;5.97;;;3.53;;
62509;SDS011;48558;48.242;11.654;2024-01-30T15:55:49;5.05;;;3.83;;
62509;SDS011;48558;48.242;11.654;2024-01-30T16:00:02;11.40;;;3.80;;
62509;SDS011;48558;48.242;11.654;2024-01-30T16:04:16;3.45;;;2.60;;
62509;SDS011;48558;48.242;11.654;2024-01-30T16:08:29;5.07;;;3.08;;
62509;SDS011;48558;48.242;11.654;2024-01-30T16:12:45;4.15;;;3.20;;
62509;SDS011;48558;48.242;11.654;2024-01-30T16:16:58;6.53;;;3.13;;
62509;SDS011;48558;48.242;11.654;2024-01-30T16:21:11;3.42;;;2.58;;
62509;SDS011;48558;48.242;11.654;2024-01-30T16:25:26;4.20;;;2.80;;
62509;SDS011;48558;48.242;11.654;2024-01-30T16:29:38;3.35;;;2.40;;
62509;SDS011;48558;48.242;11.654;2024-01-30T16:33:51;9.63;;;3.55;;
62509;SDS011;48558;48.242;11.654;2024-01-30T16:38:03;3.85;;;2.67;;
62509;SDS011;48558;48.242;11.654;2024-01-30T16:42:16;3.75;;;3.17;;
62509;SDS011;48558;48.242;11.654;2024-01-30T16:46:28;5.00;;;3.08;;
62509;SDS011;48558;48.242;11.654;2024-01-30T16:50:41;5.32;;;2.92;;
62509;SDS011;48558;48.242;11.654;2024-01-30T16:54:54;10.05;;;2.70;;
62509;SDS011;48558;48.242;11.654;2024-01-30T16:59:06;4.57;;;2.28;;
62509;SDS011;48558;48.242;11.654;2024-01-30T17:03:19;3.67;;;2.50;;
62509;SDS011;48558;48.242;11.654;2024-01-30T17:07:31;10.35;;;2.75;;
62509;SDS011;48558;48.242;11.654;2024-01-30T17:11:47;6.03;;;2.22;;
62509;SDS011;48558;48.242;11.654;2024-01-30T17:16:00;4.88;;;2.03;;
62509;SDS011;48558;48.242;11.654;2024-01-30T17:20:12;5.85;;;3.10;;
62509;SDS011;48558;48.242;11.654;2024-01-30T17:24:25;11.40;;;3.00;;
62509;SDS011;48558;48.242;11.654;2024-01-30T17:28:53;13.52;;;4.10;;
62509;SDS011;48558;48.242;11.654;2024-01-30T17:33:05;8.73;;;4.40;;
62509;SDS011;48558;48.242;11.654;2024-01-30T17:37:18;4.57;;;3.35;;
62509;SDS011;48558;48.242;11.654;2024-01-30T17:41:31;8.32;;;3.53;;
62509;SDS011;48558;48.242;11.654;2024-01-30T17:45:44;12.00;;;3.10;;
62509;SDS011;48558;48.242;11.654;2024-01-30T17:49:56;4.07;;;2.85;;
62509;SDS011;48558;48.242;11.654;2024-01-30T17:54:09;5.03;;;2.67;;
62509;SDS011;48558;48.242;11.654;2024-01-30T17:58:22;6.20;;;3.58;;
62509;SDS011;48558;48.242;11.654;2024-01-30T18:02:34;7.18;;;3.38;;
62509;SDS011;48558;48.242;11.654;2024-01-30T18:06:51;9.65;;;3.88;;
62509;SDS011;48558;48.242;11.654;2024-01-30T18:11:05;6.20;;;3.97;;
62509;SDS011;48558;48.242;11.654;2024-01-30T18:15:18;4.07;;;2.97;;
62509;SDS011;48558;48.242;11.654;2024-01-30T18:19:30;4.43;;;2.85;;
62509;SDS011;48558;48.242;11.654;2024-01-30T18:23:43;3.05;;;2.45;;
62509;SDS011;48558;48.242;11.654;2024-01-30T18:27:55;8.73;;;2.25;;
62509;SDS011;48558;48.242;11.654;2024-01-30T18:32:08;3.47;;;1.70;;
62509;SDS011;48558;48.242;11.654;2024-01-30T18:36:22;2.30;;;2.10;;
62509;SDS011;48558;48.242;11.654;2024-01-30T18:40:36;4.65;;;2.08;;
62509;SDS011;48558;48.242;11.654;2024-01-30T18:44:48;4.30;;;2.22;;
62509;SDS011;48558;48.242;11.654;2024-01-30T18:49:01;4.40;;;2.90;;
62509;SDS011;48558;48.242;11.654;2024-01-30T18:53:14;3.47;;;2.83;;
62509;SDS011;48558;48.242;11.654;2024-01-30T18:57:28;5.03;;;2.80;;
62509;SDS011;48558;48.242;11.654;2024-01-30T19:01:41;6.90;;;3.25;;
62509;SDS011;48558;48.242;11.654;2024-01-30T19:05:54;4.25;;;2.88;;
62509;SDS011;48558;48.242;11.654;2024-01-30T19:10:08;6.07;;;2.92;;
62509;SDS011;48558;48.242;11.654;2024-01-30T19:14:22;5.05;;;3.22;;
62509;SDS011;48558;48.242;11.654;2024-01-30T19:18:35;5.88;;;3.47;;
62509;SDS011;48558;48.242;11.654;2024-01-30T19:22:48;2.45;;;2.15;;
62509;SDS011;48558;48.242;11.654;2024-01-30T19:27:01;3.38;;;2.33;;
62509;SDS011;48558;48.242;11.654;2024-01-30T19:31:13;1.95;;;1.85;;
62509;SDS011;48558;48.242;11.654;2024-01-30T19:35:29;8.18;;;2.88;;
62509;SDS011;48558;48.242;11.654;2024-01-30T19:39:42;2.42;;;2.10;;
62509;SDS011;48558;48.242;11.654;2024-01-30T19:43:56;2.65;;;2.35;;
62509;SDS011;48558;48.242;11.654;2024-01-30T19:48:08;2.50;;;2.28;;
62509;SDS011;48558;48.242;11.654;2024-01-30T19:52:22;3.97;;;3.03;;
62509;SDS011;48558;48.242;11.654;2024-01-30T19:56:35;7.18;;;2.65;;
62509;SDS011;48558;48.242;11.654;2024-01-30T20:00:48;10.05;;;3.80;;
62509;SDS011;48558;48.242;11.654;2024-01-30T20:05:02;5.63;;;3.47;;
62509;SDS011;48558;48.242;11.654;2024-01-30T20:09:15;3.25;;;2.53;;
62509;SDS011;48558;48.242;11.654;2024-01-30T20:13:27;6.40;;;4.03;;
62509;SDS011;48558;48.242;11.654;2024-01-30T20:17:59;3.90;;;3.35;;
62509;SDS011;48558;48.242;11.654;2024-01-30T20:22:32;5.53;;;3.10;;
62509;SDS011;48558;48.242;11.654;2024-01-30T20:26:45;3.83;;;2.92;;
62509;SDS011;48558;48.242;11.654;2024-01-30T20:30:58;4.90;;;2.97;;
62509;SDS011;48558;48.242;11.654;2024-01-30T20:35:11;7.15;;;4.47;;
62509;SDS011;48558;48.242;11.654;2024-01-30T20:39:24;6.63;;;3.67;;
62509;SDS011;48558;48.242;11.654;2024-01-30T20:43:37;6.28;;;3.90;;
62509;SDS011;48558;48.242;11.654;2024-01-30T20:47:50;6.35;;;3.85;;
62509;SDS011;48558;48.242;11.654;2024-01-30T20:52:03;6.18;;;4.38;;
62509;SDS011;48558;48.242;11.654;2024-01-30T20:56:16;9.93;;;4.43;;
62509;SDS011;48558;48.242;11.654;2024-01-30T21:00:29;8.93;;;4.10;;
62509;SDS011;48558;48.242;11.654;2024-01-30T21:04:41;8.43;;;3.88;;
62509;SDS011;48558;48.242;11.654;2024-01-30T21:09:00;8.63;;;4.60;;
62509;SDS011;48558;48.242;11.654;2024-01-30T21:13:12;7.47;;;4.13;;
62509;SDS011;48558;48.242;11.654;2024-01-30T21:17:25;9.25;;;3.75;;
62509;SDS011;48558;48.242;11.654;2024-01-30T21:21:38;5.10;;;3.58;;
62509;SDS011;48558;48.242;11.654;2024-01-30T21:25:50;6.10;;;3.55;;
62509;SDS011;48558;48.242;11.654;2024-01-30T21:30:04;4.55;;;3.50;;
62509;SDS011;48558;48.242;11.654;2024-01-30T21:34:18;6.13;;;4.05;;
62509;SDS011;48558;48.242;11.654;2024-01-30T21:38:31;5.18;;;3.58;;
62509;SDS011;48558;48.242;11.654;2024-01-30T21:42:43;4.93;;;3.45;;
62509;SDS011;48558;48.242;11.654;2024-01-30T21:46:58;6.00;;;3.42;;
62509;SDS011;48558;48.242;11.654;2024-01-30T21:51:11;6.53;;;3.53;;
62509;SDS011;48558;48.242;11.654;2024-01-30T21:55:23;9.20;;;3.92;;
62509;SDS011;48558;48.242;11.654;2024-01-30T21:59:36;5.55;;;3.22;;
62509;SDS011;48558;48.242;11.654;2024-01-30T22:03:49;5.40;;;3.17;;
62509;SDS011;48558;48.242;11.654;2024-01-30T22:08:03;5.18;;;3.60;;
62509;SDS011;48558;48.242;11.654;2024-01-30T22:12:17;8.27;;;3.85;;
62509;SDS011;48558;48.242;11.654;2024-01-30T22:16:29;8.35;;;3.70;;
62509;SDS011;48558;48.242;11.654;2024-01-30T22:20:42;5.60;;;3.85;;
62509;SDS011;48558;48.242;11.654;2024-01-30T22:24:55;9.93;;;4.47;;
62509;SDS011;48558;48.242;11.654;2024-01-30T22:29:08;4.43;;;3.15;;
62509;SDS011;48558;48.242;11.654;2024-01-30T22:33:21;6.07;;;3.65;;
62509;SDS011;48558;48.242;11.654;2024-01-30T22:37:38;8.25;;;3.42;;
62509;SDS011;48558;48.242;11.654;2024-01-30T22:41:51;4.38;;;2.80;;
62509;SDS011;48558;48.242;11.654;2024-01-30T22:46:05;6.13;;;2.78;;
62509;SDS011;48558;48.242;11.654;2024-01-30T22:50:17;2.88;;;2.65;;
62509;SDS011;48558;48.242;11.654;2024-01-30T22:54:30;5.57;;;3.40;;
62509;SDS011;48558;48.242;11.654;2024-01-30T22:58:42;6.30;;;3.70;;
62509;SDS011;48558;48.242;11.654;2024-01-30T23:02:55;5.57;;;3.47;;
62509;SDS011;48558;48.242;11.654;2024-01-30T23:07:08;5.82;;;3.40;;
62509;SDS011;48558;48.242;11.654;2024-01-30T23:11:21;5.38;;;3.55;;
62509;SDS011;48558;48.242;11.654;2024-01-30T23:15:34;5.50;;;3.58;;
62509;SDS011;48558;48.242;11.654;2024-01-30T23:19:47;4.90;;;2.92;;
62509;SDS011;48558;48.242;11.654;2024-01-30T23:24:00;4.38;;;3.10;;
62509;SDS011;48558;48.242;11.654;2024-01-30T23:28:13;4.88;;;3.25;;
62509;SDS011;48558;48.242;11.654;2024-01-30T23:32:26;6.03;;;2.75;;
62509;SDS011;48558;48.242;11.654;2024-01-30T23:36:50;3.20;;;2.90;;
62509;SDS011;48558;48.242;11.654;2024-01-30T23:41:03;3.72;;;2.78;;
62509;SDS011;48558;48.242;11.654;2024-01-30T23:45:16;4.00;;;2.72;;
62509;SDS011;48558;48.242;11.654;2024-01-30T23:49:29;3.70;;;3.05;;
62509;SDS011;48558;48.242;11.654;2024-01-30T23:53:41;3.33;;;2.88;;
62509;SDS011;48558;48.242;11.654;2024-01-30T23:57:54;3.08;;;2.65;;
